createdAt,value
2023-11-08T00:04:46.119Z,100546.69
2023-11-08T00:09:49.161Z,100558.53
2023-11-08T00:14:51.108Z,100551.13
2023-11-08T00:19:53.072Z,100548.75
2023-11-08T00:24:56.081Z,100557.09
2023-11-08T00:29:58.010Z,100556.75
2023-11-08T00:34:59.749Z,100548.50
2023-11-08T00:40:03.168Z,100556.75
2023-11-08T00:45:06.786Z,100562.72
2023-11-08T00:50:09.246Z,100551.38
2023-11-08T00:55:12.279Z,100580.44
2023-11-08T01:00:14.597Z,100562.75
2023-11-08T01:05:16.291Z,100569.56
2023-11-08T01:10:19.416Z,100571.13
2023-11-08T01:15:21.345Z,100573.84
2023-11-08T01:20:23.008Z,100504.63
2023-11-08T01:25:26.051Z,100578.59
2023-11-08T01:30:28.157Z,100580.56
2023-11-08T01:35:29.993Z,100585.31
2023-11-08T01:40:33.067Z,100583.84
2023-11-08T01:45:34.999Z,100586.25
2023-11-08T01:50:36.698Z,100576.09
2023-11-08T01:55:39.700Z,100579.75
2023-11-08T02:00:43.612Z,100577.88
2023-11-08T02:05:45.765Z,100583.13
2023-11-08T02:10:48.915Z,100582.75
2023-11-08T02:15:50.845Z,100556.34
2023-11-08T02:20:52.857Z,100584.31
2023-11-08T02:25:56.223Z,100584.31
2023-11-08T02:30:58.058Z,100587.63
2023-11-08T02:36:00.569Z,100592.91
2023-11-08T02:41:03.934Z,100585.00
2023-11-08T02:46:05.645Z,100583.69
2023-11-08T02:51:07.993Z,100587.28
2023-11-08T02:56:11.102Z,100594.44
2023-11-08T03:01:13.382Z,100601.28
2023-11-08T03:06:15.074Z,100598.75
2023-11-08T03:11:18.096Z,100600.06
2023-11-08T03:16:19.738Z,100596.47
2023-11-08T03:21:21.839Z,100602.78
2023-11-08T03:26:24.829Z,100524.09
2023-11-08T03:31:26.672Z,100543.44
2023-11-08T03:36:28.713Z,100623.72
2023-11-08T03:41:31.744Z,100623.59
2023-11-08T03:46:33.435Z,100625.75
2023-11-08T03:51:35.155Z,100621.53
2023-11-08T03:56:38.270Z,100628.88
2023-11-08T04:01:40.020Z,100635.22
2023-11-08T04:06:41.856Z,100538.94
2023-11-08T04:11:44.845Z,100646.09
2023-11-08T04:16:46.767Z,100649.84
2023-11-08T04:21:48.485Z,100578.13
2023-11-08T04:26:51.481Z,100640.13
2023-11-08T04:31:53.319Z,100653.66
2023-11-08T04:36:55.058Z,100648.16
2023-11-08T04:41:58.115Z,100648.25
2023-11-08T04:46:59.717Z,100650.28
2023-11-08T04:52:01.426Z,100643.34
2023-11-08T04:57:04.677Z,100647.28
2023-11-08T05:02:06.315Z,100653.38
2023-11-08T05:07:08.018Z,100653.84
2023-11-08T05:12:12.256Z,100648.13
2023-11-08T05:17:13.967Z,100652.66
2023-11-08T05:22:15.614Z,100648.69
2023-11-08T05:27:18.749Z,100504.03
2023-11-08T05:32:20.823Z,100656.13
2023-11-08T05:37:22.495Z,100654.72
2023-11-08T05:42:25.576Z,100658.91
2023-11-08T05:47:27.372Z,100656.91
2023-11-08T05:52:29.029Z,100667.31
2023-11-08T05:57:32.041Z,100670.56
2023-11-08T06:02:33.734Z,100672.59
2023-11-08T06:07:35.464Z,100671.41
2023-11-08T06:12:38.730Z,100668.28
2023-11-08T06:17:40.474Z,100641.84
2023-11-08T06:22:42.260Z,100675.78
2023-11-08T06:27:46.956Z,100660.25
2023-11-08T06:32:48.876Z,100702.09
2023-11-08T06:37:51.320Z,100678.78
2023-11-08T06:42:54.632Z,100693.97
2023-11-08T06:47:56.618Z,100704.28
2023-11-08T06:52:58.307Z,100701.25
2023-11-08T06:58:01.436Z,100711.81
2023-11-08T07:03:03.158Z,100717.28
2023-11-08T07:08:05.498Z,100717.41
2023-11-08T07:13:08.500Z,100717.69
2023-11-08T07:18:10.961Z,100724.81
2023-11-08T07:23:12.668Z,100726.88
2023-11-08T07:28:15.921Z,100725.28
2023-11-08T07:33:18.160Z,100734.41
2023-11-08T07:38:19.891Z,100732.34
2023-11-08T07:43:22.929Z,100739.63
2023-11-08T07:48:24.672Z,100742.63
2023-11-08T07:53:26.381Z,100743.84
2023-11-08T07:58:29.852Z,100740.22
2023-11-08T08:03:31.563Z,100738.09
2023-11-08T08:08:33.280Z,100692.16
2023-11-08T08:13:36.328Z,100735.88
2023-11-08T08:18:38.365Z,100744.88
2023-11-08T08:23:41.704Z,100722.41
2023-11-08T08:28:45.993Z,100746.28
2023-11-08T08:33:47.878Z,100656.00
2023-11-08T08:38:50.020Z,100738.03
2023-11-08T08:43:55.865Z,100738.44
2023-11-08T08:48:59.061Z,100755.69
2023-11-08T08:54:00.721Z,100750.16
2023-11-08T08:59:04.082Z,100721.25
2023-11-08T09:04:05.788Z,100703.50
2023-11-08T09:09:07.528Z,100742.88
2023-11-08T09:14:10.611Z,100755.25
2023-11-08T09:19:12.382Z,100738.69
2023-11-08T09:24:14.060Z,100746.25
2023-11-08T09:29:17.121Z,100753.41
2023-11-08T09:34:19.107Z,100758.34
2023-11-08T09:39:20.761Z,100769.66
2023-11-08T09:44:24.816Z,100763.25
2023-11-08T09:49:28.423Z,100766.19
2023-11-08T09:54:30.689Z,100775.53
2023-11-08T09:59:34.354Z,100770.97
2023-11-08T10:04:44.812Z,100767.06
2023-11-08T10:09:47.896Z,100755.34
2023-11-08T10:14:58.461Z,100750.38
2023-11-08T10:20:00.599Z,100740.19
2023-11-08T10:25:03.369Z,100753.34
2023-11-08T10:30:15.665Z,100739.84
2023-11-08T10:35:19.112Z,100680.38
2023-11-08T10:40:20.877Z,100756.56
2023-11-08T10:45:24.094Z,100744.16
2023-11-08T10:50:26.822Z,100730.50
2023-11-08T10:55:28.796Z,100702.81
2023-11-08T11:00:32.801Z,100708.22
2023-11-08T11:05:37.235Z,100717.13
2023-11-08T11:10:38.997Z,100711.72
2023-11-08T11:15:52.377Z,100720.47
2023-11-08T11:20:58.676Z,100676.88
2023-11-08T11:26:00.887Z,100705.75
2023-11-08T11:31:46.184Z,100689.97
2023-11-08T11:37:07.731Z,100703.59
2023-11-08T11:42:15.408Z,100696.75
2023-11-08T11:47:20.573Z,100624.22
2023-11-08T11:52:23.470Z,100705.00
2023-11-08T11:57:26.708Z,100679.66
2023-11-08T12:02:30.037Z,100644.63
2023-11-08T12:07:32.401Z,100646.50
2023-11-08T12:12:34.246Z,100655.91
2023-11-08T12:17:37.344Z,100638.72
2023-11-08T12:22:46.468Z,100632.06
2023-11-08T12:27:49.272Z,100647.22
2023-11-08T12:32:52.656Z,100414.66
2023-11-08T12:37:57.849Z,100642.06
2023-11-08T12:43:56.633Z,100637.50
2023-11-08T12:48:36.363Z,100644.69
2023-11-08T12:53:38.343Z,100608.38
2023-11-08T12:58:40.023Z,100628.75
2023-11-08T13:03:43.375Z,100623.78
2023-11-08T13:08:53.958Z,100475.78
2023-11-08T13:13:55.662Z,100514.44
2023-11-08T13:18:58.772Z,100606.56
2023-11-08T13:24:05.785Z,100589.03
2023-11-08T13:29:09.514Z,100578.06
2023-11-08T13:34:12.620Z,100598.66
2023-11-08T13:39:14.674Z,100598.56
2023-11-08T13:44:16.366Z,100606.56
2023-11-08T13:49:19.630Z,100602.13
2023-11-08T13:54:21.276Z,100591.41
2023-11-08T13:59:22.960Z,100590.88
2023-11-08T14:04:25.999Z,100578.22
2023-11-08T14:09:27.904Z,100585.31
2023-11-08T14:14:29.519Z,100544.88
2023-11-08T14:19:32.529Z,100578.09
2023-11-08T14:24:34.224Z,100577.81
2023-11-08T14:29:38.833Z,100565.16
2023-11-08T14:34:42.210Z,100544.72
2023-11-08T14:39:45.166Z,100506.34
2023-11-08T14:44:46.994Z,100505.91
2023-11-08T14:49:51.147Z,100530.09
2023-11-08T14:54:52.839Z,100507.03
2023-11-08T14:59:54.580Z,100481.75
2023-11-08T15:04:57.663Z,100509.81
2023-11-08T15:10:01.104Z,100508.13
2023-11-08T15:15:03.803Z,100500.38
2023-11-08T15:20:09.661Z,100490.91
2023-11-08T15:25:11.456Z,100493.00
2023-11-08T15:30:13.874Z,100487.84
2023-11-08T15:35:16.949Z,100481.19
2023-11-08T15:40:19.012Z,100463.41
2023-11-08T15:45:21.464Z,100456.16
2023-11-08T15:50:24.556Z,100442.53
2023-11-08T15:55:26.176Z,100426.28
2023-11-08T16:00:27.963Z,100423.91
2023-11-08T16:05:30.976Z,100419.19
2023-11-08T16:10:32.587Z,100408.09
2023-11-08T16:15:34.269Z,100402.25
2023-11-08T16:20:37.301Z,100386.84
2023-11-08T16:25:38.955Z,100400.56
2023-11-08T16:31:00.591Z,100391.25
2023-11-08T16:36:04.698Z,100396.25
2023-11-08T16:41:06.521Z,100381.84
2023-11-08T16:46:08.242Z,100385.97
2023-11-08T16:51:11.617Z,100379.88
2023-11-08T16:56:13.229Z,100388.34
2023-11-08T17:01:21.569Z,100294.56
2023-11-08T17:06:24.561Z,100377.38
2023-11-08T17:11:26.343Z,100385.56
2023-11-08T17:16:28.151Z,100374.19
2023-11-08T17:21:33.255Z,100350.72
2023-11-08T17:26:34.873Z,100359.31
2023-11-08T17:31:36.548Z,100357.94
2023-11-08T17:36:39.539Z,100351.81
2023-11-08T17:41:41.763Z,100334.59
2023-11-08T17:46:43.680Z,100350.53
2023-11-08T17:51:46.849Z,100343.59
2023-11-08T17:56:48.494Z,100334.59
2023-11-08T18:01:50.177Z,100332.63
2023-11-08T18:06:53.153Z,100315.97
2023-11-08T18:11:54.805Z,100310.97
2023-11-08T18:16:56.433Z,100302.09
2023-11-08T18:21:59.394Z,100293.19
2023-11-08T18:27:01.061Z,100300.41
2023-11-08T18:32:02.860Z,100299.28
2023-11-08T18:37:05.821Z,100284.72
2023-11-08T18:42:07.741Z,100273.75
2023-11-08T18:47:09.886Z,100279.28
2023-11-08T18:52:13.020Z,100257.50
2023-11-08T18:57:15.248Z,100224.03
2023-11-08T19:02:16.927Z,100264.56
2023-11-08T19:07:20.015Z,100247.50
2023-11-08T19:12:23.277Z,100257.09
2023-11-08T19:17:25.408Z,100256.53
2023-11-08T19:22:28.415Z,100174.09
2023-11-08T19:27:30.159Z,100248.59
2023-11-08T19:32:32.169Z,100239.97
2023-11-08T19:37:35.531Z,100197.13
2023-11-08T19:42:37.567Z,100212.25
2023-11-08T19:47:39.533Z,100221.56
2023-11-08T19:52:42.523Z,100213.78
2023-11-08T19:57:44.218Z,100219.31
2023-11-08T20:02:45.981Z,100221.69
2023-11-08T20:07:48.963Z,100181.44
2023-11-08T20:12:50.609Z,100212.97
2023-11-08T20:17:52.374Z,100198.78
2023-11-08T20:22:55.456Z,100189.94
2023-11-08T20:27:57.386Z,100173.84
2023-11-08T20:32:59.210Z,100055.41
2023-11-08T20:38:02.308Z,100150.53
2023-11-08T20:43:04.203Z,100161.38
2023-11-08T20:48:06.049Z,100161.94
2023-11-08T20:53:09.219Z,100165.09
2023-11-08T20:58:10.899Z,100162.06
2023-11-08T21:03:12.615Z,100155.78
2023-11-08T21:08:15.636Z,100167.34
2023-11-08T21:13:17.337Z,100148.31
2023-11-08T21:18:21.774Z,100148.91
2023-11-08T21:23:26.512Z,100131.53
2023-11-08T21:28:28.198Z,100120.31
2023-11-08T21:33:30.550Z,100132.81
2023-11-08T21:38:33.543Z,100127.66
2023-11-08T21:43:35.490Z,100121.84
2023-11-08T21:48:38.051Z,100115.88
2023-11-08T21:53:41.009Z,100116.84
2023-11-08T21:58:42.690Z,100109.94
2023-11-08T22:03:44.373Z,100104.78
2023-11-08T22:08:47.538Z,100108.94
2023-11-08T22:13:49.190Z,100098.25
2023-11-08T22:18:50.957Z,100097.56
2023-11-08T22:23:54.002Z,100082.19
2023-11-08T22:28:55.634Z,100084.38
2023-11-08T22:33:57.413Z,100077.59
2023-11-08T22:39:00.405Z,100071.78
2023-11-08T22:44:02.040Z,100064.69
2023-11-08T22:49:04.120Z,100044.63
2023-11-08T22:54:07.513Z,100028.00
2023-11-08T22:59:09.964Z,99909.41
2023-11-08T23:04:11.691Z,100008.72
2023-11-08T23:09:14.708Z,100022.72
2023-11-08T23:14:16.358Z,100006.34
2023-11-08T23:19:18.076Z,99998.56
2023-11-08T23:24:21.655Z,99985.28
2023-11-08T23:29:23.280Z,99978.63
2023-11-08T23:34:25.015Z,99984.03
2023-11-08T23:39:28.414Z,99971.72
2023-11-08T23:44:30.398Z,99964.50
2023-11-08T23:49:32.155Z,99947.03
2023-11-08T23:54:35.170Z,99933.88
2023-11-08T23:59:36.809Z,99930.84
